sensor_id;sensor_type;location;lat;lon;timestamp;temperature;humidity
68128;SHT30;54931;52.098;21.006;2022-08-06T00:02:22;22.43;67.80
68128;SHT30;54931;52.098;21.006;2022-08-06T00:04:53;22.42;67.83
68128;SHT30;54931;52.098;21.006;2022-08-06T00:07:21;22.42;67.87
68128;SHT30;54931;52.098;21.006;2022-08-06T00:09:48;22.39;67.98
68128;SHT30;54931;52.098;21.006;2022-08-06T00:12:16;22.32;68.17
68128;SHT30;54931;52.098;21.006;2022-08-06T00:14:43;22.25;68.38
68128;SHT30;54931;52.098;21.006;2022-08-06T00:17:11;22.16;68.59
68128;SHT30;54931;52.098;21.006;2022-08-06T00:19:38;22.13;68.71
68128;SHT30;54931;52.098;21.006;2022-08-06T00:22:05;22.12;68.68
68128;SHT30;54931;52.098;21.006;2022-08-06T00:24:32;22.08;68.81
68128;SHT30;54931;52.098;21.006;2022-08-06T00:26:59;22.00;68.98
68128;SHT30;54931;52.098;21.006;2022-08-06T00:29:26;21.91;69.26
68128;SHT30;54931;52.098;21.006;2022-08-06T00:31:54;21.82;69.62
68128;SHT30;54931;52.098;21.006;2022-08-06T00:34:21;21.77;69.74
68128;SHT30;54931;52.098;21.006;2022-08-06T00:36:48;21.79;69.85
68128;SHT30;54931;52.098;21.006;2022-08-06T00:39:15;21.82;69.91
68128;SHT30;54931;52.098;21.006;2022-08-06T00:41:42;21.80;69.94
68128;SHT30;54931;52.098;21.006;2022-08-06T00:44:10;21.76;70.11
68128;SHT30;54931;52.098;21.006;2022-08-06T00:46:39;21.66;70.34
68128;SHT30;54931;52.098;21.006;2022-08-06T00:49:06;21.49;70.96
68128;SHT30;54931;52.098;21.006;2022-08-06T00:51:34;21.36;72.34
68128;SHT30;54931;52.098;21.006;2022-08-06T00:54:02;21.33;72.31
68128;SHT30;54931;52.098;21.006;2022-08-06T00:56:29;21.29;72.67
68128;SHT30;54931;52.098;21.006;2022-08-06T00:58:56;21.24;72.40
68128;SHT30;54931;52.098;21.006;2022-08-06T01:01:24;21.22;72.45
68128;SHT30;54931;52.098;21.006;2022-08-06T01:03:51;21.23;72.72
68128;SHT30;54931;52.098;21.006;2022-08-06T01:06:21;21.17;73.10
68128;SHT30;54931;52.098;21.006;2022-08-06T01:08:48;21.09;72.96
68128;SHT30;54931;52.098;21.006;2022-08-06T01:11:15;21.02;72.96
68128;SHT30;54931;52.098;21.006;2022-08-06T01:13:43;20.95;73.47
68128;SHT30;54931;52.098;21.006;2022-08-06T01:31:59;20.55;74.41
68128;SHT30;54931;52.098;21.006;2022-08-06T01:34:33;20.48;74.50
68128;SHT30;54931;52.098;21.006;2022-08-06T01:37:21;20.50;74.52
68128;SHT30;54931;52.098;21.006;2022-08-06T01:39:57;20.54;74.57
68128;SHT30;54931;52.098;21.006;2022-08-06T01:42:31;20.55;74.53
68128;SHT30;54931;52.098;21.006;2022-08-06T01:45:00;20.55;74.83
68128;SHT30;54931;52.098;21.006;2022-08-06T01:47:32;20.52;75.74
68128;SHT30;54931;52.098;21.006;2022-08-06T01:50:03;20.51;75.45
68128;SHT30;54931;52.098;21.006;2022-08-06T01:52:34;20.46;75.20
68128;SHT30;54931;52.098;21.006;2022-08-06T01:55:07;20.42;75.19
68128;SHT30;54931;52.098;21.006;2022-08-06T01:57:53;20.45;75.33
68128;SHT30;54931;52.098;21.006;2022-08-06T02:00:25;20.47;75.17
68128;SHT30;54931;52.098;21.006;2022-08-06T02:02:54;20.47;75.39
68128;SHT30;54931;52.098;21.006;2022-08-06T02:05:27;20.50;75.30
68128;SHT30;54931;52.098;21.006;2022-08-06T02:07:56;20.51;75.30
68128;SHT30;54931;52.098;21.006;2022-08-06T02:10:26;20.50;75.30
68128;SHT30;54931;52.098;21.006;2022-08-06T02:12:59;20.48;75.28
68128;SHT30;54931;52.098;21.006;2022-08-06T02:15:30;20.50;75.27
68128;SHT30;54931;52.098;21.006;2022-08-06T02:18:02;20.51;75.20
68128;SHT30;54931;52.098;21.006;2022-08-06T02:20:37;20.52;75.44
68128;SHT30;54931;52.098;21.006;2022-08-06T02:23:11;20.50;75.41
68128;SHT30;54931;52.098;21.006;2022-08-06T02:25:44;20.45;75.86
68128;SHT30;54931;52.098;21.006;2022-08-06T02:28:15;20.44;75.71
68128;SHT30;54931;52.098;21.006;2022-08-06T02:30:46;20.43;75.86
68128;SHT30;54931;52.098;21.006;2022-08-06T02:33:17;20.43;75.61
68128;SHT30;54931;52.098;21.006;2022-08-06T02:38:25;20.46;75.64
68128;SHT30;54931;52.098;21.006;2022-08-06T02:41:05;20.46;75.58
68128;SHT30;54931;52.098;21.006;2022-08-06T02:44:09;20.43;75.61
68128;SHT30;54931;52.098;21.006;2022-08-06T02:46:45;20.38;75.73
68128;SHT30;54931;52.098;21.006;2022-08-06T02:49:20;20.33;75.72
68128;SHT30;54931;52.098;21.006;2022-08-06T02:52:31;20.31;75.79
68128;SHT30;54931;52.098;21.006;2022-08-06T02:55:19;20.31;75.79
68128;SHT30;54931;52.098;21.006;2022-08-06T02:57:56;20.31;75.85
68128;SHT30;54931;52.098;21.006;2022-08-06T03:00:38;20.24;75.92
68128;SHT30;54931;52.098;21.006;2022-08-06T03:03:10;20.24;76.01
68128;SHT30;54931;52.098;21.006;2022-08-06T03:05:42;20.25;76.18
68128;SHT30;54931;52.098;21.006;2022-08-06T03:08:14;20.22;76.54
68128;SHT30;54931;52.098;21.006;2022-08-06T03:10:45;20.20;76.59
68128;SHT30;54931;52.098;21.006;2022-08-06T03:13:15;20.17;76.75
68128;SHT30;54931;52.098;21.006;2022-08-06T03:15:45;20.14;76.80
68128;SHT30;54931;52.098;21.006;2022-08-06T03:18:13;20.15;76.79
68128;SHT30;54931;52.098;21.006;2022-08-06T03:20:44;20.16;76.74
68128;SHT30;54931;52.098;21.006;2022-08-06T03:23:13;20.17;76.75
68128;SHT30;54931;52.098;21.006;2022-08-06T03:25:41;20.13;76.86
68128;SHT30;54931;52.098;21.006;2022-08-06T03:28:12;20.08;76.83
68128;SHT30;54931;52.098;21.006;2022-08-06T03:30:42;20.10;76.84
68128;SHT30;54931;52.098;21.006;2022-08-06T03:33:13;20.09;76.84
68128;SHT30;54931;52.098;21.006;2022-08-06T03:35:42;20.11;76.90
68128;SHT30;54931;52.098;21.006;2022-08-06T03:38:12;20.15;76.80
68128;SHT30;54931;52.098;21.006;2022-08-06T03:40:42;20.15;76.81
68128;SHT30;54931;52.098;21.006;2022-08-06T03:43:13;20.15;76.89
68128;SHT30;54931;52.098;21.006;2022-08-06T03:45:43;20.16;76.86
68128;SHT30;54931;52.098;21.006;2022-08-06T03:48:24;20.21;76.57
68128;SHT30;54931;52.098;21.006;2022-08-06T03:50:57;20.28;76.22
68128;SHT30;54931;52.098;21.006;2022-08-06T03:53:30;20.31;75.94
68128;SHT30;54931;52.098;21.006;2022-08-06T03:56:03;20.37;75.51
68128;SHT30;54931;52.098;21.006;2022-08-06T03:58:35;20.46;75.14
68128;SHT30;54931;52.098;21.006;2022-08-06T04:01:07;20.54;74.87
68128;SHT30;54931;52.098;21.006;2022-08-06T04:03:41;20.60;74.56
68128;SHT30;54931;52.098;21.006;2022-08-06T04:06:11;20.66;74.41
68128;SHT30;54931;52.098;21.006;2022-08-06T04:08:39;20.72;74.24
68128;SHT30;54931;52.098;21.006;2022-08-06T04:11:08;20.79;74.17
68128;SHT30;54931;52.098;21.006;2022-08-06T04:13:37;20.83;74.20
68128;SHT30;54931;52.098;21.006;2022-08-06T04:16:06;20.90;74.15
68128;SHT30;54931;52.098;21.006;2022-08-06T04:18:35;20.94;74.18
68128;SHT30;54931;52.098;21.006;2022-08-06T04:21:09;20.99;74.17
68128;SHT30;54931;52.098;21.006;2022-08-06T04:23:42;21.02;74.37
68128;SHT30;54931;52.098;21.006;2022-08-06T04:26:12;21.06;74.46
68128;SHT30;54931;52.098;21.006;2022-08-06T04:28:44;21.17;74.39
68128;SHT30;54931;52.098;21.006;2022-08-06T04:31:18;21.18;74.61
68128;SHT30;54931;52.098;21.006;2022-08-06T04:33:48;21.19;74.60
68128;SHT30;54931;52.098;21.006;2022-08-06T04:36:18;21.21;74.51
68128;SHT30;54931;52.098;21.006;2022-08-06T04:38:47;21.24;74.70
68128;SHT30;54931;52.098;21.006;2022-08-06T04:41:15;21.25;74.71
68128;SHT30;54931;52.098;21.006;2022-08-06T04:43:43;21.25;75.00
68128;SHT30;54931;52.098;21.006;2022-08-06T04:46:13;21.30;75.09
68128;SHT30;54931;52.098;21.006;2022-08-06T04:48:41;21.31;75.37
68128;SHT30;54931;52.098;21.006;2022-08-06T04:51:08;21.39;75.32
68128;SHT30;54931;52.098;21.006;2022-08-06T04:53:39;21.44;75.40
68128;SHT30;54931;52.098;21.006;2022-08-06T04:56:08;21.56;75.24
68128;SHT30;54931;52.098;21.006;2022-08-06T04:58:37;21.60;75.34
68128;SHT30;54931;52.098;21.006;2022-08-06T05:01:05;21.73;75.10
68128;SHT30;54931;52.098;21.006;2022-08-06T05:03:32;21.91;74.92
68128;SHT30;54931;52.098;21.006;2022-08-06T05:08:33;22.15;74.22
68128;SHT30;54931;52.098;21.006;2022-08-06T05:11:24;22.12;74.35
68128;SHT30;54931;52.098;21.006;2022-08-06T05:14:20;22.17;74.39
68128;SHT30;54931;52.098;21.006;2022-08-06T05:16:55;22.23;74.48
68128;SHT30;54931;52.098;21.006;2022-08-06T05:19:25;22.24;74.53
68128;SHT30;54931;52.098;21.006;2022-08-06T05:22:00;22.29;74.55
68128;SHT30;54931;52.098;21.006;2022-08-06T05:24:30;22.39;74.51
68128;SHT30;54931;52.098;21.006;2022-08-06T05:26:57;22.46;74.42
68128;SHT30;54931;52.098;21.006;2022-08-06T05:29:25;22.47;74.63
68128;SHT30;54931;52.098;21.006;2022-08-06T05:31:57;22.43;74.82
68128;SHT30;54931;52.098;21.006;2022-08-06T05:34:28;22.44;74.98
68128;SHT30;54931;52.098;21.006;2022-08-06T05:36:55;22.42;75.17
68128;SHT30;54931;52.098;21.006;2022-08-06T05:39:22;22.43;75.29
68128;SHT30;54931;52.098;21.006;2022-08-06T05:41:50;22.41;75.46
68128;SHT30;54931;52.098;21.006;2022-08-06T05:44:18;22.32;75.87
68128;SHT30;54931;52.098;21.006;2022-08-06T05:46:52;22.28;76.03
68128;SHT30;54931;52.098;21.006;2022-08-06T05:49:34;22.21;76.26
68128;SHT30;54931;52.098;21.006;2022-08-06T05:52:07;22.12;76.81
68128;SHT30;54931;52.098;21.006;2022-08-06T05:54:51;22.13;76.68
68128;SHT30;54931;52.098;21.006;2022-08-06T05:57:45;22.17;76.44
68128;SHT30;54931;52.098;21.006;2022-08-06T06:00:29;22.21;76.47
68128;SHT30;54931;52.098;21.006;2022-08-06T06:03:00;22.18;76.68
68128;SHT30;54931;52.098;21.006;2022-08-06T06:05:31;22.20;76.45
68128;SHT30;54931;52.098;21.006;2022-08-06T06:07:59;22.19;76.66
68128;SHT30;54931;52.098;21.006;2022-08-06T06:10:27;22.20;76.56
68128;SHT30;54931;52.098;21.006;2022-08-06T06:13:01;22.21;76.48
68128;SHT30;54931;52.098;21.006;2022-08-06T06:15:31;22.22;76.45
68128;SHT30;54931;52.098;21.006;2022-08-06T06:18:16;22.24;76.41
68128;SHT30;54931;52.098;21.006;2022-08-06T06:24:26;22.23;76.63
68128;SHT30;54931;52.098;21.006;2022-08-06T06:27:05;22.24;76.44
68128;SHT30;54931;52.098;21.006;2022-08-06T06:30:10;22.30;76.31
68128;SHT30;54931;52.098;21.006;2022-08-06T06:32:50;22.37;76.21
68128;SHT30;54931;52.098;21.006;2022-08-06T06:35:34;22.43;76.00
68128;SHT30;54931;52.098;21.006;2022-08-06T06:41:26;22.41;75.86
68128;SHT30;54931;52.098;21.006;2022-08-06T06:44:19;22.42;75.92
68128;SHT30;54931;52.098;21.006;2022-08-06T06:46:57;22.49;75.60
68128;SHT30;54931;52.098;21.006;2022-08-06T06:49:37;22.52;75.38
68128;SHT30;54931;52.098;21.006;2022-08-06T06:52:13;22.54;75.46
68128;SHT30;54931;52.098;21.006;2022-08-06T06:54:52;22.65;75.11
68128;SHT30;54931;52.098;21.006;2022-08-06T06:57:32;22.72;74.94
68128;SHT30;54931;52.098;21.006;2022-08-06T07:00:07;22.75;74.66
68128;SHT30;54931;52.098;21.006;2022-08-06T07:02:37;22.78;74.52
68128;SHT30;54931;52.098;21.006;2022-08-06T07:05:08;22.83;74.33
68128;SHT30;54931;52.098;21.006;2022-08-06T07:07:39;22.81;74.15
68128;SHT30;54931;52.098;21.006;2022-08-06T07:10:11;22.78;74.10
68128;SHT30;54931;52.098;21.006;2022-08-06T07:12:42;22.78;74.18
68128;SHT30;54931;52.098;21.006;2022-08-06T07:15:12;22.80;73.99
68128;SHT30;54931;52.098;21.006;2022-08-06T07:17:41;22.81;74.10
68128;SHT30;54931;52.098;21.006;2022-08-06T07:20:11;22.89;73.83
68128;SHT30;54931;52.098;21.006;2022-08-06T07:22:42;22.96;73.41
68128;SHT30;54931;52.098;21.006;2022-08-06T07:25:12;22.94;73.31
68128;SHT30;54931;52.098;21.006;2022-08-06T07:27:43;22.91;73.28
68128;SHT30;54931;52.098;21.006;2022-08-06T07:30:16;22.92;73.14
68128;SHT30;54931;52.098;21.006;2022-08-06T07:32:46;22.92;73.26
68128;SHT30;54931;52.098;21.006;2022-08-06T07:35:19;22.87;73.22
68128;SHT30;54931;52.098;21.006;2022-08-06T07:37:56;22.80;73.37
68128;SHT30;54931;52.098;21.006;2022-08-06T07:40:43;22.74;73.66
68128;SHT30;54931;52.098;21.006;2022-08-06T07:45:52;22.63;74.15
68128;SHT30;54931;52.098;21.006;2022-08-06T07:48:27;22.60;74.30
68128;SHT30;54931;52.098;21.006;2022-08-06T07:51:00;22.58;74.40
68128;SHT30;54931;52.098;21.006;2022-08-06T07:53:30;22.52;74.66
68128;SHT30;54931;52.098;21.006;2022-08-06T07:56:01;22.50;74.81
68128;SHT30;54931;52.098;21.006;2022-08-06T07:58:33;22.50;75.00
68128;SHT30;54931;52.098;21.006;2022-08-06T08:01:04;22.51;74.95
68128;SHT30;54931;52.098;21.006;2022-08-06T08:03:33;22.49;74.96
68128;SHT30;54931;52.098;21.006;2022-08-06T08:06:21;22.46;75.16
68128;SHT30;54931;52.098;21.006;2022-08-06T08:08:57;22.44;75.08
68128;SHT30;54931;52.098;21.006;2022-08-06T08:11:30;22.40;75.34
68128;SHT30;54931;52.098;21.006;2022-08-06T08:13:58;22.32;75.53
68128;SHT30;54931;52.098;21.006;2022-08-06T08:16:30;22.27;75.79
68128;SHT30;54931;52.098;21.006;2022-08-06T08:18:59;22.22;76.14
68128;SHT30;54931;52.098;21.006;2022-08-06T08:21:27;22.18;76.50
68128;SHT30;54931;52.098;21.006;2022-08-06T08:23:56;22.10;76.60
68128;SHT30;54931;52.098;21.006;2022-08-06T08:26:24;22.01;76.71
68128;SHT30;54931;52.098;21.006;2022-08-06T08:28:51;21.91;77.10
68128;SHT30;54931;52.098;21.006;2022-08-06T08:31:19;21.79;77.46
68128;SHT30;54931;52.098;21.006;2022-08-06T08:33:47;21.64;78.19
68128;SHT30;54931;52.098;21.006;2022-08-06T08:36:14;21.51;78.76
68128;SHT30;54931;52.098;21.006;2022-08-06T08:38:42;21.37;79.42
68128;SHT30;54931;52.098;21.006;2022-08-06T08:41:15;21.26;80.01
68128;SHT30;54931;52.098;21.006;2022-08-06T08:43:59;21.16;80.18
68128;SHT30;54931;52.098;21.006;2022-08-06T08:46:34;21.07;80.97
68128;SHT30;54931;52.098;21.006;2022-08-06T08:49:07;20.98;81.05
68128;SHT30;54931;52.098;21.006;2022-08-06T08:51:46;20.86;81.23
68128;SHT30;54931;52.098;21.006;2022-08-06T08:54:19;20.77;81.80
68128;SHT30;54931;52.098;21.006;2022-08-06T08:56:49;20.70;81.75
68128;SHT30;54931;52.098;21.006;2022-08-06T08:59:18;20.66;81.96
68128;SHT30;54931;52.098;21.006;2022-08-06T09:01:47;20.65;82.04
68128;SHT30;54931;52.098;21.006;2022-08-06T09:04:16;20.62;82.18
68128;SHT30;54931;52.098;21.006;2022-08-06T09:06:44;20.59;82.41
68128;SHT30;54931;52.098;21.006;2022-08-06T09:09:13;20.52;82.76
68128;SHT30;54931;52.098;21.006;2022-08-06T09:11:42;20.44;82.95
68128;SHT30;54931;52.098;21.006;2022-08-06T09:14:12;20.41;83.08
68128;SHT30;54931;52.098;21.006;2022-08-06T09:16:39;20.40;83.14
68128;SHT30;54931;52.098;21.006;2022-08-06T09:19:07;20.40;83.18
68128;SHT30;54931;52.098;21.006;2022-08-06T09:21:35;20.39;83.26
68128;SHT30;54931;52.098;21.006;2022-08-06T09:24:03;20.41;83.25
68128;SHT30;54931;52.098;21.006;2022-08-06T09:26:32;20.40;83.20
68128;SHT30;54931;52.098;21.006;2022-08-06T09:29:00;20.38;83.55
68128;SHT30;54931;52.098;21.006;2022-08-06T09:31:27;20.37;83.43
68128;SHT30;54931;52.098;21.006;2022-08-06T09:33:56;20.35;83.41
68128;SHT30;54931;52.098;21.006;2022-08-06T09:36:42;20.32;83.53
68128;SHT30;54931;52.098;21.006;2022-08-06T09:39:12;20.30;83.50
68128;SHT30;54931;52.098;21.006;2022-08-06T09:41:46;20.29;83.57
68128;SHT30;54931;52.098;21.006;2022-08-06T09:44:18;20.30;83.76
68128;SHT30;54931;52.098;21.006;2022-08-06T09:46:46;20.33;83.66
68128;SHT30;54931;52.098;21.006;2022-08-06T09:49:18;20.33;83.00
68128;SHT30;54931;52.098;21.006;2022-08-06T09:51:46;20.22;81.82
68128;SHT30;54931;52.098;21.006;2022-08-06T09:54:14;20.09;81.67
68128;SHT30;54931;52.098;21.006;2022-08-06T09:56:46;20.02;81.75
68128;SHT30;54931;52.098;21.006;2022-08-06T09:59:24;19.96;81.87
68128;SHT30;54931;52.098;21.006;2022-08-06T10:01:52;19.90;82.01
68128;SHT30;54931;52.098;21.006;2022-08-06T10:04:24;19.87;82.31
68128;SHT30;54931;52.098;21.006;2022-08-06T10:06:57;19.85;82.24
68128;SHT30;54931;52.098;21.006;2022-08-06T10:09:28;19.89;82.32
68128;SHT30;54931;52.098;21.006;2022-08-06T10:11:57;19.93;82.12
68128;SHT30;54931;52.098;21.006;2022-08-06T10:14:32;19.92;81.83
68128;SHT30;54931;52.098;21.006;2022-08-06T10:17:04;19.95;81.86
68128;SHT30;54931;52.098;21.006;2022-08-06T10:19:41;20.00;81.81
68128;SHT30;54931;52.098;21.006;2022-08-06T10:22:11;20.05;81.93
68128;SHT30;54931;52.098;21.006;2022-08-06T10:24:51;20.07;81.16
68128;SHT30;54931;52.098;21.006;2022-08-06T10:27:23;19.98;80.63
68128;SHT30;54931;52.098;21.006;2022-08-06T10:29:58;19.91;80.78
68128;SHT30;54931;52.098;21.006;2022-08-06T10:32:45;19.88;80.58
68128;SHT30;54931;52.098;21.006;2022-08-06T10:35:21;19.77;80.28
68128;SHT30;54931;52.098;21.006;2022-08-06T10:37:51;19.67;80.54
68128;SHT30;54931;52.098;21.006;2022-08-06T10:40:26;19.59;80.91
68128;SHT30;54931;52.098;21.006;2022-08-06T10:42:54;19.52;81.13
68128;SHT30;54931;52.098;21.006;2022-08-06T10:45:23;19.45;81.26
68128;SHT30;54931;52.098;21.006;2022-08-06T10:47:53;19.38;81.38
68128;SHT30;54931;52.098;21.006;2022-08-06T10:50:22;19.31;81.70
68128;SHT30;54931;52.098;21.006;2022-08-06T10:52:50;19.30;81.78
68128;SHT30;54931;52.098;21.006;2022-08-06T10:55:19;19.29;81.92
68128;SHT30;54931;52.098;21.006;2022-08-06T10:57:47;19.33;81.82
68128;SHT30;54931;52.098;21.006;2022-08-06T11:00:16;19.39;81.64
68128;SHT30;54931;52.098;21.006;2022-08-06T11:03:00;19.40;81.24
68128;SHT30;54931;52.098;21.006;2022-08-06T11:14:58;19.23;81.49
68128;SHT30;54931;52.098;21.006;2022-08-06T11:17:49;19.21;81.48
68128;SHT30;54931;52.098;21.006;2022-08-06T11:23:04;19.26;81.58
68128;SHT30;54931;52.098;21.006;2022-08-06T11:25:41;19.33;81.56
68128;SHT30;54931;52.098;21.006;2022-08-06T11:28:12;19.34;81.12
68128;SHT30;54931;52.098;21.006;2022-08-06T11:30:49;19.31;80.95
68128;SHT30;54931;52.098;21.006;2022-08-06T11:36:01;19.25;81.06
68128;SHT30;54931;52.098;21.006;2022-08-06T11:46:31;19.11;81.09
68128;SHT30;54931;52.098;21.006;2022-08-06T11:54:28;18.97;81.23
68128;SHT30;54931;52.098;21.006;2022-08-06T11:59:34;18.83;81.41
68128;SHT30;54931;52.098;21.006;2022-08-06T12:02:12;18.80;81.42
68128;SHT30;54931;52.098;21.006;2022-08-06T12:04:43;18.78;81.58
68128;SHT30;54931;52.098;21.006;2022-08-06T12:15:50;18.66;81.87
68128;SHT30;54931;52.098;21.006;2022-08-06T12:18:20;18.64;81.89
68128;SHT30;54931;52.098;21.006;2022-08-06T12:20:47;18.63;81.75
68128;SHT30;54931;52.098;21.006;2022-08-06T12:23:21;18.59;81.80
68128;SHT30;54931;52.098;21.006;2022-08-06T12:25:53;18.58;81.83
68128;SHT30;54931;52.098;21.006;2022-08-06T12:28:21;18.58;81.72
68128;SHT30;54931;52.098;21.006;2022-08-06T12:30:51;18.58;81.50
68128;SHT30;54931;52.098;21.006;2022-08-06T12:33:22;18.58;81.66
68128;SHT30;54931;52.098;21.006;2022-08-06T12:35:59;18.58;81.59
68128;SHT30;54931;52.098;21.006;2022-08-06T12:38:28;18.54;81.46
68128;SHT30;54931;52.098;21.006;2022-08-06T12:41:02;18.54;81.64
68128;SHT30;54931;52.098;21.006;2022-08-06T12:43:33;18.51;81.48
68128;SHT30;54931;52.098;21.006;2022-08-06T12:46:03;18.51;81.64
68128;SHT30;54931;52.098;21.006;2022-08-06T12:48:33;18.54;81.73
68128;SHT30;54931;52.098;21.006;2022-08-06T12:51:11;18.55;81.76
68128;SHT30;54931;52.098;21.006;2022-08-06T12:53:41;18.60;81.88
68128;SHT30;54931;52.098;21.006;2022-08-06T12:56:21;18.62;81.67
68128;SHT30;54931;52.098;21.006;2022-08-06T12:58:51;18.64;81.53
68128;SHT30;54931;52.098;21.006;2022-08-06T13:01:21;18.70;81.55
68128;SHT30;54931;52.098;21.006;2022-08-06T13:03:53;18.84;82.00
68128;SHT30;54931;52.098;21.006;2022-08-06T13:06:24;18.97;81.41
68128;SHT30;54931;52.098;21.006;2022-08-06T13:08:55;19.03;81.22
68128;SHT30;54931;52.098;21.006;2022-08-06T13:11:29;19.07;81.25
68128;SHT30;54931;52.098;21.006;2022-08-06T13:13:58;19.07;81.25
68128;SHT30;54931;52.098;21.006;2022-08-06T13:16:38;19.10;81.33
68128;SHT30;54931;52.098;21.006;2022-08-06T13:19:11;19.21;81.28
68128;SHT30;54931;52.098;21.006;2022-08-06T13:21:45;19.40;81.49
68128;SHT30;54931;52.098;21.006;2022-08-06T13:24:25;19.64;81.09
68128;SHT30;54931;52.098;21.006;2022-08-06T13:26:53;19.83;81.18
68128;SHT30;54931;52.098;21.006;2022-08-06T13:29:24;20.08;79.84
68128;SHT30;54931;52.098;21.006;2022-08-06T13:32:01;20.38;79.18
68128;SHT30;54931;52.098;21.006;2022-08-06T13:34:55;20.68;79.34
68128;SHT30;54931;52.098;21.006;2022-08-06T13:40:18;21.17;76.45
68128;SHT30;54931;52.098;21.006;2022-08-06T13:43:00;21.36;74.93
68128;SHT30;54931;52.098;21.006;2022-08-06T13:45:28;21.49;75.55
68128;SHT30;54931;52.098;21.006;2022-08-06T13:48:06;21.67;73.47
68128;SHT30;54931;52.098;21.006;2022-08-06T13:50:39;21.74;73.09
68128;SHT30;54931;52.098;21.006;2022-08-06T13:53:10;21.80;72.68
68128;SHT30;54931;52.098;21.006;2022-08-06T13:55:42;21.70;70.66
68128;SHT30;54931;52.098;21.006;2022-08-06T13:58:11;21.56;70.04
68128;SHT30;54931;52.098;21.006;2022-08-06T14:00:38;21.53;70.08
68128;SHT30;54931;52.098;21.006;2022-08-06T14:03:07;21.55;70.52
68128;SHT30;54931;52.098;21.006;2022-08-06T14:05:35;21.68;70.64
68128;SHT30;54931;52.098;21.006;2022-08-06T14:08:02;21.68;69.12
68128;SHT30;54931;52.098;21.006;2022-08-06T14:10:30;21.55;68.99
68128;SHT30;54931;52.098;21.006;2022-08-06T14:12:57;21.43;68.71
68128;SHT30;54931;52.098;21.006;2022-08-06T14:15:47;21.32;69.14
68128;SHT30;54931;52.098;21.006;2022-08-06T14:18:17;21.24;68.39
68128;SHT30;54931;52.098;21.006;2022-08-06T14:20:46;21.17;68.99
68128;SHT30;54931;52.098;21.006;2022-08-06T14:23:14;21.15;69.69
68128;SHT30;54931;52.098;21.006;2022-08-06T14:25:41;21.17;70.12
68128;SHT30;54931;52.098;21.006;2022-08-06T14:28:09;21.19;69.80
68128;SHT30;54931;52.098;21.006;2022-08-06T14:30:38;21.25;70.11
68128;SHT30;54931;52.098;21.006;2022-08-06T14:33:06;21.27;69.44
68128;SHT30;54931;52.098;21.006;2022-08-06T14:35:36;21.34;69.16
68128;SHT30;54931;52.098;21.006;2022-08-06T14:38:06;21.45;69.44
68128;SHT30;54931;52.098;21.006;2022-08-06T14:40:33;21.63;69.78
68128;SHT30;54931;52.098;21.006;2022-08-06T14:43:20;21.87;69.87
68128;SHT30;54931;52.098;21.006;2022-08-06T14:46:06;21.97;68.79
68128;SHT30;54931;52.098;21.006;2022-08-06T14:48:33;22.05;68.66
68128;SHT30;54931;52.098;21.006;2022-08-06T14:51:01;22.20;67.65
68128;SHT30;54931;52.098;21.006;2022-08-06T14:53:28;22.45;67.49
68128;SHT30;54931;52.098;21.006;2022-08-06T14:55:55;22.74;67.16
68128;SHT30;54931;52.098;21.006;2022-08-06T14:58:22;22.95;64.99
68128;SHT30;54931;52.098;21.006;2022-08-06T15:00:50;23.09;64.67
68128;SHT30;54931;52.098;21.006;2022-08-06T15:03:18;23.15;63.69
68128;SHT30;54931;52.098;21.006;2022-08-06T15:05:45;23.17;63.24
68128;SHT30;54931;52.098;21.006;2022-08-06T15:08:13;23.17;63.19
68128;SHT30;54931;52.098;21.006;2022-08-06T15:10:40;23.15;63.03
68128;SHT30;54931;52.098;21.006;2022-08-06T15:13:08;23.02;62.00
68128;SHT30;54931;52.098;21.006;2022-08-06T15:15:35;22.83;62.59
68128;SHT30;54931;52.098;21.006;2022-08-06T15:18:03;22.68;62.44
68128;SHT30;54931;52.098;21.006;2022-08-06T15:20:30;23.19;63.31
68128;SHT30;54931;52.098;21.006;2022-08-06T15:22:57;23.68;62.54
68128;SHT30;54931;52.098;21.006;2022-08-06T15:25:25;23.81;62.53
68128;SHT30;54931;52.098;21.006;2022-08-06T15:27:52;23.82;61.62
68128;SHT30;54931;52.098;21.006;2022-08-06T15:30:19;23.63;60.92
68128;SHT30;54931;52.098;21.006;2022-08-06T15:32:47;23.48;61.07
68128;SHT30;54931;52.098;21.006;2022-08-06T15:35:14;23.27;60.64
68128;SHT30;54931;52.098;21.006;2022-08-06T15:37:41;23.07;61.69
68128;SHT30;54931;52.098;21.006;2022-08-06T15:40:08;23.03;62.99
68128;SHT30;54931;52.098;21.006;2022-08-06T15:42:36;23.22;62.42
68128;SHT30;54931;52.098;21.006;2022-08-06T15:45:04;23.30;61.01
68128;SHT30;54931;52.098;21.006;2022-08-06T15:47:32;23.17;60.88
68128;SHT30;54931;52.098;21.006;2022-08-06T15:49:59;23.05;60.84
68128;SHT30;54931;52.098;21.006;2022-08-06T15:52:27;23.10;60.68
68128;SHT30;54931;52.098;21.006;2022-08-06T15:54:55;23.08;60.97
68128;SHT30;54931;52.098;21.006;2022-08-06T15:57:23;23.02;60.64
68128;SHT30;54931;52.098;21.006;2022-08-06T15:59:50;23.00;60.78
68128;SHT30;54931;52.098;21.006;2022-08-06T16:02:17;22.89;60.30
68128;SHT30;54931;52.098;21.006;2022-08-06T16:04:45;22.76;61.03
68128;SHT30;54931;52.098;21.006;2022-08-06T16:07:12;22.65;61.72
68128;SHT30;54931;52.098;21.006;2022-08-06T16:09:40;22.60;61.97
68128;SHT30;54931;52.098;21.006;2022-08-06T16:12:08;22.71;62.25
68128;SHT30;54931;52.098;21.006;2022-08-06T16:14:36;23.11;61.13
68128;SHT30;54931;52.098;21.006;2022-08-06T16:17:04;23.55;60.67
68128;SHT30;54931;52.098;21.006;2022-08-06T16:19:32;24.29;60.22
68128;SHT30;54931;52.098;21.006;2022-08-06T16:22:00;25.20;58.43
68128;SHT30;54931;52.098;21.006;2022-08-06T16:24:27;25.96;56.19
68128;SHT30;54931;52.098;21.006;2022-08-06T16:26:54;26.47;55.18
68128;SHT30;54931;52.098;21.006;2022-08-06T16:29:21;26.88;54.40
68128;SHT30;54931;52.098;21.006;2022-08-06T16:31:50;27.22;53.57
68128;SHT30;54931;52.098;21.006;2022-08-06T16:34:17;27.57;53.50
68128;SHT30;54931;52.098;21.006;2022-08-06T16:36:45;27.86;52.60
68128;SHT30;54931;52.098;21.006;2022-08-06T16:39:12;28.02;52.45
68128;SHT30;54931;52.098;21.006;2022-08-06T16:41:40;28.09;51.03
68128;SHT30;54931;52.098;21.006;2022-08-06T16:44:08;28.10;50.44
68128;SHT30;54931;52.098;21.006;2022-08-06T16:46:35;28.17;50.91
68128;SHT30;54931;52.098;21.006;2022-08-06T16:49:03;28.33;50.71
68128;SHT30;54931;52.098;21.006;2022-08-06T16:51:31;28.48;49.94
68128;SHT30;54931;52.098;21.006;2022-08-06T16:53:59;28.47;49.27
68128;SHT30;54931;52.098;21.006;2022-08-06T16:56:26;28.43;49.67